FQMA

Maputo Airport

Maputo, Mozambique

FQMA 110900Z 05003KT 9999 OVC020 24/17 Q1017 NOSIG

Observed Flight Rules
Dec-11 @ 09:00 UTC (20 minutes ago) Marginal Visual Flight Rules
Wind Visibility Clouds
50° at 3 knots 10,000+ meters
  • Overcast at 2,000' AGL
Temperatures Readings
Current 24°C / 75°F
Dewpoint 17°C / 63°F
Humidity 65%
Altimeter 30.03" Hg
Pressure 1017 hPa
Elevation 44
Observed Flight Rules
Dec-11 @ 09:00 UTC
(20 minutes ago)
MVFR
Wind Visibility
50° at 3 knots 10,000+ meters
Clouds
  • Overcast at 2,000' AGL
Temperature Dewpoint
24°C / 75°F 17°C / 63°F
Humidity Altimeter Pressure
65% 30.03" Hg 1017 hPa